createdAt,value
2023-03-06T00:01:09.745Z,11.27
2023-03-06T00:03:36.916Z,9.45
2023-03-06T00:06:04.558Z,12.00
2023-03-06T00:08:32.185Z,9.00
2023-03-06T00:10:59.955Z,7.40
2023-03-06T00:13:30.302Z,14.27
2023-03-06T00:16:12.162Z,10.20
2023-03-06T00:18:40.474Z,8.43
2023-03-06T00:21:08.911Z,9.30
2023-03-06T00:23:36.656Z,10.75
2023-03-06T00:26:08.436Z,11.15
2023-03-06T00:28:36.396Z,10.52
2023-03-06T00:31:04.121Z,9.77
2023-03-06T00:33:32.385Z,7.93
2023-03-06T00:36:00.823Z,8.80
2023-03-06T00:38:31.857Z,10.65
2023-03-06T00:41:00.119Z,8.88
2023-03-06T00:43:27.210Z,8.52
2023-03-06T00:45:54.828Z,11.10
2023-03-06T00:48:23.203Z,7.00
2023-03-06T00:50:50.663Z,7.82
2023-03-06T00:53:19.180Z,10.10
2023-03-06T00:55:46.943Z,8.13
2023-03-06T00:58:14.619Z,10.02
2023-03-06T01:00:45.096Z,9.43
2023-03-06T01:03:13.693Z,10.52
2023-03-06T01:05:41.300Z,8.80
2023-03-06T01:08:18.269Z,11.05
2023-03-06T01:10:45.738Z,10.35
2023-03-06T01:13:14.319Z,10.13
2023-03-06T01:15:41.820Z,13.45
2023-03-06T01:18:09.361Z,12.95
2023-03-06T01:20:37.608Z,9.35
2023-03-06T01:23:06.050Z,12.48
2023-03-06T01:25:33.649Z,9.73
2023-03-06T01:28:01.063Z,8.57
2023-03-06T01:30:28.457Z,10.25
2023-03-06T01:32:56.048Z,10.85
2023-03-06T01:35:23.529Z,10.63
2023-03-06T01:37:52.028Z,8.70
2023-03-06T01:40:19.452Z,7.90
2023-03-06T01:42:49.852Z,7.55
2023-03-06T01:45:17.242Z,10.02
2023-03-06T01:47:45.532Z,10.32
2023-03-06T01:50:13.998Z,12.73
2023-03-06T01:52:49.787Z,10.18
2023-03-06T01:55:22.220Z,10.52
2023-03-06T01:57:55.526Z,10.17
2023-03-06T02:02:57.190Z,10.40
2023-03-06T02:05:25.188Z,9.70
2023-03-06T02:07:54.943Z,13.88
2023-03-06T02:10:22.620Z,11.18
2023-03-06T02:12:52.113Z,11.35
2023-03-06T02:15:22.966Z,12.98
2023-03-06T02:17:52.042Z,10.88
2023-03-06T02:20:51.206Z,12.88
2023-03-06T02:23:36.800Z,8.77
2023-03-06T02:26:05.978Z,13.07
2023-03-06T02:28:33.129Z,12.68
2023-03-06T02:31:01.749Z,14.77
2023-03-06T02:33:31.663Z,11.45
2023-03-06T02:36:10.633Z,14.30
2023-03-06T02:38:44.961Z,13.40
2023-03-06T02:41:12.563Z,16.02
2023-03-06T02:43:41.275Z,13.45
2023-03-06T02:46:10.098Z,9.95
2023-03-06T02:48:38.458Z,12.90
2023-03-06T02:51:07.020Z,16.48
2023-03-06T02:53:35.460Z,12.75
2023-03-06T02:56:04.005Z,13.23
2023-03-06T02:58:31.296Z,14.38
2023-03-06T03:00:58.723Z,13.32
2023-03-06T03:03:25.840Z,14.73
2023-03-06T03:05:53.156Z,15.88
2023-03-06T03:08:22.986Z,16.38
2023-03-06T03:10:50.638Z,16.60
2023-03-06T03:13:19.848Z,15.00
2023-03-06T03:16:07.424Z,15.93
2023-03-06T03:18:36.028Z,13.75
2023-03-06T03:21:08.248Z,16.65
2023-03-06T03:23:35.728Z,13.02
2023-03-06T03:26:14.956Z,13.75
2023-03-06T03:28:42.704Z,12.63
2023-03-06T03:31:11.532Z,11.73
2023-03-06T03:33:40.422Z,13.18
2023-03-06T03:36:08.904Z,11.52
2023-03-06T03:38:42.406Z,13.85
2023-03-06T03:41:11.867Z,12.80
2023-03-06T03:43:40.264Z,13.10
2023-03-06T03:46:07.777Z,15.38
2023-03-06T03:48:36.246Z,12.63
2023-03-06T03:51:09.564Z,13.23
2023-03-06T03:56:04.927Z,12.68
2023-03-06T03:58:33.289Z,11.38
2023-03-06T04:01:01.306Z,13.02
2023-03-06T04:03:28.749Z,11.98
2023-03-06T04:05:58.300Z,12.77
2023-03-06T04:08:28.510Z,14.27
2023-03-06T04:10:56.426Z,15.30
2023-03-06T04:13:25.664Z,13.57
2023-03-06T04:15:54.736Z,13.25
2023-03-06T04:18:23.743Z,14.00
2023-03-06T04:20:53.583Z,14.98
2023-03-06T04:23:23.208Z,17.15
2023-03-06T04:25:51.282Z,17.17
2023-03-06T04:28:18.593Z,14.07
2023-03-06T04:30:47.243Z,16.67
2023-03-06T04:33:14.846Z,18.48
2023-03-06T04:35:42.082Z,16.02
2023-03-06T04:38:10.711Z,15.15
2023-03-06T04:40:38.143Z,14.20
2023-03-06T04:43:06.521Z,15.77
2023-03-06T04:45:34.609Z,16.30
2023-03-06T04:48:02.264Z,15.05
2023-03-06T04:50:32.824Z,17.70
2023-03-06T04:53:02.000Z,16.65
2023-03-06T04:55:29.985Z,18.33
2023-03-06T04:57:58.263Z,17.95
2023-03-06T05:00:31.984Z,18.35
2023-03-06T05:03:01.291Z,18.58
2023-03-06T05:05:30.064Z,20.50
2023-03-06T05:07:59.534Z,20.75
2023-03-06T05:10:27.048Z,19.98
2023-03-06T05:12:54.385Z,20.83
2023-03-06T05:15:28.002Z,21.90
2023-03-06T05:17:56.762Z,21.05
2023-03-06T05:20:25.301Z,22.20
2023-03-06T05:22:53.666Z,24.73
2023-03-06T05:25:21.346Z,24.13
2023-03-06T05:27:49.463Z,25.08
2023-03-06T05:30:17.269Z,24.20
2023-03-06T05:32:44.815Z,22.90
2023-03-06T05:35:22.040Z,26.27
2023-03-06T05:37:51.380Z,26.02
2023-03-06T05:40:20.228Z,25.48
2023-03-06T05:42:48.750Z,24.20
2023-03-06T05:45:16.325Z,27.83
2023-03-06T05:47:44.684Z,26.30
2023-03-06T05:50:14.267Z,22.98
2023-03-06T05:52:41.907Z,24.65
2023-03-06T05:55:16.902Z,22.65
2023-03-06T05:57:45.362Z,23.42
2023-03-06T06:00:14.296Z,25.33
2023-03-06T06:02:43.179Z,25.40
2023-03-06T06:05:12.968Z,23.63
2023-03-06T06:07:41.181Z,29.73
2023-03-06T06:10:09.560Z,22.15
2023-03-06T06:12:37.104Z,25.95
2023-03-06T06:15:05.002Z,24.55
2023-03-06T06:17:32.543Z,24.60
2023-03-06T06:19:59.947Z,22.60
2023-03-06T06:22:27.433Z,25.13
2023-03-06T06:24:54.862Z,25.02
2023-03-06T06:27:22.393Z,27.23
2023-03-06T06:29:52.960Z,23.05
2023-03-06T06:32:20.643Z,24.48
2023-03-06T06:34:48.250Z,24.50
2023-03-06T06:37:17.863Z,23.25
2023-03-06T06:39:45.218Z,24.75
2023-03-06T06:42:30.476Z,27.90
2023-03-06T06:45:00.178Z,28.20
2023-03-06T06:47:27.742Z,28.70
2023-03-06T06:49:57.741Z,27.45
2023-03-06T06:52:27.103Z,28.35
2023-03-06T06:54:54.572Z,29.33
2023-03-06T06:57:22.207Z,26.67
2023-03-06T06:59:52.555Z,24.98
2023-03-06T07:02:22.672Z,25.95
2023-03-06T07:05:03.138Z,25.90
2023-03-06T07:07:34.446Z,27.05
2023-03-06T07:10:14.618Z,26.77
2023-03-06T07:12:42.193Z,27.98
2023-03-06T07:15:10.105Z,28.48
2023-03-06T07:17:37.418Z,27.33
2023-03-06T07:20:07.426Z,24.98
2023-03-06T07:22:48.705Z,27.00
2023-03-06T07:25:19.057Z,26.85
2023-03-06T07:27:52.850Z,24.83
2023-03-06T07:30:23.762Z,25.25
2023-03-06T07:33:02.316Z,24.95
2023-03-06T07:35:30.728Z,26.65
2023-03-06T07:37:58.367Z,23.95
2023-03-06T07:40:28.017Z,27.13
2023-03-06T07:43:13.024Z,25.30
2023-03-06T07:45:47.388Z,25.92
2023-03-06T07:48:15.309Z,27.52
2023-03-06T07:50:43.223Z,26.48
2023-03-06T07:53:11.425Z,25.13
2023-03-06T07:55:51.087Z,24.13
2023-03-06T07:58:19.914Z,22.42
2023-03-06T08:00:47.573Z,28.88
2023-03-06T08:03:15.506Z,21.15
2023-03-06T08:05:43.303Z,21.83
2023-03-06T08:08:13.148Z,21.98
2023-03-06T08:10:40.784Z,21.52
2023-03-06T08:13:09.325Z,20.05
2023-03-06T08:15:38.812Z,21.85
2023-03-06T08:18:07.899Z,20.92
2023-03-06T08:20:35.237Z,20.38
2023-03-06T08:23:02.657Z,19.05
2023-03-06T08:25:30.362Z,18.08
2023-03-06T08:27:57.563Z,20.38
2023-03-06T08:30:25.132Z,20.70
2023-03-06T08:32:52.540Z,18.88
2023-03-06T08:35:20.116Z,19.33
2023-03-06T08:37:47.433Z,19.27
2023-03-06T08:40:16.213Z,19.65
2023-03-06T08:42:48.280Z,18.38
2023-03-06T08:45:16.008Z,18.48
2023-03-06T08:47:43.698Z,18.40
2023-03-06T08:50:13.430Z,18.90
2023-03-06T08:52:43.145Z,16.95
2023-03-06T08:55:11.096Z,17.92
2023-03-06T08:57:38.336Z,15.98
2023-03-06T09:00:11.160Z,15.35
2023-03-06T09:02:40.485Z,12.98
2023-03-06T09:05:09.457Z,15.27
2023-03-06T09:07:36.866Z,11.70
2023-03-06T09:10:04.522Z,12.63
2023-03-06T09:12:49.447Z,13.10
2023-03-06T09:15:20.850Z,13.27
2023-03-06T09:17:49.445Z,12.68
2023-03-06T09:20:18.224Z,11.63
2023-03-06T09:22:48.517Z,11.50
2023-03-06T09:25:20.694Z,10.63
2023-03-06T09:27:58.219Z,10.40
2023-03-06T09:30:30.844Z,10.07
2023-03-06T09:32:58.496Z,9.70
2023-03-06T09:35:26.997Z,9.07
2023-03-06T09:37:54.546Z,9.95
2023-03-06T09:40:50.837Z,10.02
2023-03-06T09:43:37.335Z,9.95
2023-03-06T09:46:31.543Z,8.13
2023-03-06T09:49:10.560Z,9.80
2023-03-06T09:51:52.220Z,9.95
2023-03-06T09:54:30.701Z,8.07
2023-03-06T09:56:58.412Z,9.00
2023-03-06T09:59:26.619Z,6.57
2023-03-06T10:02:19.197Z,7.20
2023-03-06T10:04:55.021Z,13.95
2023-03-06T10:07:32.467Z,7.38
2023-03-06T10:10:08.065Z,6.00
2023-03-06T10:12:45.625Z,6.78
2023-03-06T10:15:22.392Z,7.35
2023-03-06T10:17:49.952Z,7.13
2023-03-06T10:20:34.258Z,7.53
2023-03-06T10:23:38.599Z,8.00
2023-03-06T10:26:15.657Z,7.63
2023-03-06T10:28:47.409Z,10.43
2023-03-06T10:31:21.278Z,7.22
2023-03-06T10:33:49.800Z,7.43
2023-03-06T10:36:20.345Z,8.05
2023-03-06T10:38:49.321Z,9.95
2023-03-06T10:41:30.229Z,9.75
2023-03-06T10:44:00.917Z,6.88
2023-03-06T10:46:48.090Z,7.47
2023-03-06T10:49:28.843Z,7.78
2023-03-06T10:52:10.063Z,6.75
2023-03-06T10:54:40.891Z,17.00
2023-03-06T10:57:30.163Z,10.73
2023-03-06T11:00:06.126Z,31.60
2023-03-06T11:02:37.640Z,9.23
2023-03-06T11:05:07.755Z,16.88
2023-03-06T11:07:55.592Z,8.65
2023-03-06T11:10:24.699Z,8.52
2023-03-06T11:13:00.253Z,9.40
2023-03-06T11:15:30.481Z,9.43
2023-03-06T11:18:05.225Z,11.43
2023-03-06T11:20:52.343Z,12.88
2023-03-06T11:23:44.958Z,12.18
2023-03-06T11:26:18.253Z,16.67
2023-03-06T11:29:01.152Z,15.60
2023-03-06T11:31:34.572Z,14.13
2023-03-06T11:34:11.993Z,15.40
2023-03-06T11:36:55.856Z,11.18
2023-03-06T11:42:38.068Z,16.27
2023-03-06T11:45:19.633Z,11.00
2023-03-06T11:47:54.756Z,11.73
2023-03-06T11:50:44.239Z,13.82
2023-03-06T11:53:23.450Z,12.52
2023-03-06T11:55:56.202Z,15.13
2023-03-06T11:58:43.094Z,11.27
2023-03-06T12:01:47.709Z,11.02
2023-03-06T12:04:42.838Z,10.30
2023-03-06T12:07:31.897Z,12.45
2023-03-06T12:10:06.545Z,12.23
2023-03-06T12:12:54.225Z,12.50
2023-03-06T12:15:49.816Z,12.30
2023-03-06T12:18:46.090Z,10.77
2023-03-06T12:21:16.706Z,11.77
2023-03-06T12:23:58.760Z,9.18
2023-03-06T12:27:14.356Z,10.90
2023-03-06T12:30:09.789Z,11.75
2023-03-06T12:32:53.970Z,9.85
2023-03-06T12:35:28.719Z,11.38
2023-03-06T12:38:32.542Z,6.63
2023-03-06T12:41:09.965Z,7.10
2023-03-06T12:43:58.954Z,8.27
2023-03-06T12:46:29.480Z,9.05
2023-03-06T12:49:31.831Z,8.52
2023-03-06T12:52:05.735Z,6.45
2023-03-06T12:54:39.072Z,6.72
2023-03-06T12:57:10.703Z,5.88
2023-03-06T12:59:49.344Z,6.13
2023-03-06T13:02:36.714Z,7.28
2023-03-06T13:05:33.855Z,7.32
2023-03-06T13:08:29.534Z,8.00
2023-03-06T13:11:20.007Z,19.05
2023-03-06T13:13:49.752Z,12.95
2023-03-06T13:16:32.169Z,8.20
2023-03-06T13:19:12.093Z,13.10
2023-03-06T13:22:02.419Z,7.32
2023-03-06T13:24:34.888Z,14.43
2023-03-06T13:27:08.715Z,10.77
2023-03-06T13:29:39.707Z,12.88
2023-03-06T13:32:18.239Z,27.90
2023-03-06T13:34:58.358Z,12.88
2023-03-06T13:37:26.658Z,11.23
2023-03-06T13:39:57.894Z,9.18
2023-03-06T13:42:30.581Z,13.15
2023-03-06T13:45:24.417Z,13.80
2023-03-06T13:50:48.720Z,5.40
2023-03-06T13:53:45.433Z,10.40
2023-03-06T13:56:43.898Z,11.50
2023-03-06T13:59:54.389Z,10.50
2023-03-06T14:02:48.058Z,7.15
2023-03-06T14:05:18.554Z,9.02
2023-03-06T14:07:48.350Z,14.13
2023-03-06T14:10:23.628Z,8.35
2023-03-06T14:12:51.137Z,7.30
2023-03-06T14:15:25.071Z,11.30
2023-03-06T14:17:58.836Z,8.90
2023-03-06T14:20:55.498Z,9.57
2023-03-06T14:23:29.500Z,7.97
2023-03-06T14:26:25.275Z,9.23
2023-03-06T14:29:01.640Z,9.90
2023-03-06T14:31:37.202Z,9.30
2023-03-06T14:34:14.906Z,8.45
2023-03-06T14:36:42.311Z,6.50
2023-03-06T14:39:22.345Z,10.32
2023-03-06T14:42:20.209Z,15.27
2023-03-06T14:45:01.816Z,10.77
2023-03-06T14:47:33.619Z,8.60
2023-03-06T14:50:25.811Z,10.02
2023-03-06T14:53:16.677Z,9.00
2023-03-06T14:55:54.875Z,12.77
2023-03-06T14:58:46.414Z,11.77
2023-03-06T15:01:17.762Z,12.38
2023-03-06T15:03:51.630Z,8.48
2023-03-06T15:06:25.555Z,11.02
2023-03-06T15:09:02.524Z,11.82
2023-03-06T15:12:11.391Z,10.10
2023-03-06T15:14:48.290Z,9.70
2023-03-06T15:17:18.793Z,9.23
2023-03-06T15:19:49.024Z,11.98
2023-03-06T15:22:34.231Z,10.05
2023-03-06T15:25:27.926Z,8.27
2023-03-06T15:27:59.585Z,9.48
2023-03-06T15:30:31.496Z,8.68
2023-03-06T15:33:25.035Z,7.95
2023-03-06T15:36:04.129Z,10.45
2023-03-06T15:38:45.080Z,12.20
2023-03-06T15:41:32.624Z,13.23
2023-03-06T15:44:09.057Z,13.43
2023-03-06T15:46:36.286Z,12.32
2023-03-06T15:49:05.033Z,14.07
2023-03-06T15:51:33.611Z,15.07
2023-03-06T15:54:11.967Z,15.70
2023-03-06T15:56:46.613Z,15.05
2023-03-06T15:59:25.146Z,20.83
2023-03-06T16:01:54.725Z,19.40
2023-03-06T16:04:22.145Z,18.23
2023-03-06T16:06:50.145Z,15.00
2023-03-06T16:09:18.082Z,13.82
2023-03-06T16:11:52.841Z,13.13
2023-03-06T16:14:24.156Z,12.40
2023-03-06T16:16:56.977Z,14.45
2023-03-06T16:19:27.352Z,17.42
2023-03-06T16:21:57.087Z,13.45
2023-03-06T16:24:26.624Z,16.20
2023-03-06T16:26:55.920Z,15.10
2023-03-06T16:29:27.737Z,17.05
2023-03-06T16:31:58.531Z,15.65
2023-03-06T16:34:26.140Z,14.15
2023-03-06T16:36:54.673Z,12.70
2023-03-06T16:39:29.641Z,13.30
2023-03-06T16:41:59.949Z,16.27
2023-03-06T16:44:30.164Z,16.17
2023-03-06T16:47:01.372Z,16.70
2023-03-06T16:49:29.108Z,12.98
2023-03-06T16:52:04.893Z,15.75
2023-03-06T16:54:32.397Z,15.80
2023-03-06T16:57:00.649Z,16.92
2023-03-06T16:59:29.343Z,21.27
2023-03-06T17:01:57.713Z,18.13
2023-03-06T17:04:25.631Z,17.98
2023-03-06T17:06:54.229Z,25.67
2023-03-06T17:09:24.436Z,23.10
2023-03-06T17:11:52.017Z,20.95
2023-03-06T17:14:22.395Z,24.45
2023-03-06T17:16:59.082Z,17.98
2023-03-06T17:19:26.164Z,23.50
2023-03-06T17:21:54.883Z,28.33
2023-03-06T17:24:23.481Z,32.75
2023-03-06T17:26:50.877Z,23.80
2023-03-06T17:29:26.468Z,26.15
2023-03-06T17:31:54.291Z,25.63
2023-03-06T17:34:24.554Z,23.10
2023-03-06T17:36:52.638Z,26.80
2023-03-06T17:39:23.650Z,21.33
2023-03-06T17:41:51.645Z,24.17
2023-03-06T17:44:20.099Z,19.27
2023-03-06T17:46:47.785Z,21.45
2023-03-06T17:49:20.235Z,18.85
2023-03-06T17:51:49.962Z,17.83
2023-03-06T17:54:17.908Z,20.48
2023-03-06T17:56:48.144Z,17.58
2023-03-06T17:59:16.061Z,17.73
2023-03-06T18:01:46.082Z,16.70
2023-03-06T18:04:14.533Z,15.63
2023-03-06T18:06:43.257Z,17.30
2023-03-06T18:09:12.151Z,19.90
2023-03-06T18:11:40.184Z,19.98
2023-03-06T18:14:10.215Z,22.63
2023-03-06T18:16:38.221Z,31.20
2023-03-06T18:19:09.347Z,35.05
2023-03-06T18:21:37.863Z,30.40
2023-03-06T18:24:06.144Z,20.88
2023-03-06T18:26:36.094Z,17.65
2023-03-06T18:29:05.471Z,19.25
2023-03-06T18:31:41.484Z,16.90
2023-03-06T18:34:18.348Z,19.27
2023-03-06T18:36:48.106Z,20.67
2023-03-06T18:39:16.537Z,19.98
2023-03-06T18:41:46.716Z,23.67
2023-03-06T18:44:16.734Z,27.10
2023-03-06T18:46:45.357Z,30.90
2023-03-06T18:49:27.866Z,30.23
2023-03-06T18:51:57.425Z,28.90
2023-03-06T18:54:29.613Z,32.77
2023-03-06T18:56:59.455Z,32.60
2023-03-06T18:59:28.006Z,37.92
2023-03-06T19:01:58.536Z,35.60
2023-03-06T19:04:29.655Z,24.70
2023-03-06T19:06:57.772Z,21.80
2023-03-06T19:09:27.394Z,20.25
2023-03-06T19:11:58.079Z,19.33
2023-03-06T19:14:26.105Z,22.55
2023-03-06T19:16:56.222Z,20.10
2023-03-06T19:19:32.011Z,22.10
2023-03-06T19:22:03.108Z,20.08
2023-03-06T19:24:34.553Z,20.38
2023-03-06T19:27:03.770Z,22.35
2023-03-06T19:29:33.268Z,18.90
2023-03-06T19:32:02.407Z,20.85
2023-03-06T19:34:34.087Z,21.17
2023-03-06T19:37:10.189Z,20.23
2023-03-06T19:39:38.536Z,18.33
2023-03-06T19:42:07.715Z,21.90
2023-03-06T19:44:36.306Z,20.67
2023-03-06T19:47:06.488Z,21.40
2023-03-06T19:49:41.449Z,18.48
2023-03-06T19:52:10.957Z,18.30
2023-03-06T19:54:39.449Z,15.57
2023-03-06T19:57:08.109Z,18.60
2023-03-06T19:59:36.887Z,17.40
2023-03-06T20:02:06.726Z,19.25
2023-03-06T20:04:39.729Z,17.23
2023-03-06T20:07:09.509Z,18.10
2023-03-06T20:09:45.168Z,17.45
2023-03-06T20:12:14.982Z,17.13
2023-03-06T20:14:44.550Z,17.38
2023-03-06T20:17:23.242Z,16.38
2023-03-06T20:19:51.522Z,18.95
2023-03-06T20:22:20.765Z,17.85
2023-03-06T20:24:48.862Z,17.42
2023-03-06T20:27:18.351Z,19.73
2023-03-06T20:29:46.666Z,19.05
2023-03-06T20:32:14.962Z,18.95
2023-03-06T20:34:43.738Z,22.40
2023-03-06T20:37:12.258Z,18.40
2023-03-06T20:39:47.525Z,19.63
2023-03-06T20:42:16.102Z,19.10
2023-03-06T20:44:44.233Z,21.10
2023-03-06T20:47:12.635Z,20.42
2023-03-06T20:49:42.117Z,18.92
2023-03-06T20:52:11.716Z,19.95
2023-03-06T20:54:47.233Z,24.00
2023-03-06T20:57:15.803Z,21.15
2023-03-06T20:59:45.797Z,22.70
2023-03-06T21:02:16.504Z,24.65
2023-03-06T21:04:44.161Z,25.33
2023-03-06T21:07:13.810Z,25.65
2023-03-06T21:09:41.972Z,26.00
2023-03-06T21:12:10.874Z,27.15
2023-03-06T21:14:38.434Z,31.13
2023-03-06T21:17:05.993Z,35.35
2023-03-06T21:19:34.705Z,36.75
2023-03-06T21:22:02.825Z,29.48
2023-03-06T21:24:30.188Z,33.80
2023-03-06T21:26:59.001Z,33.72
2023-03-06T21:29:26.314Z,32.72
2023-03-06T21:31:53.872Z,26.85
2023-03-06T21:34:21.504Z,26.52
2023-03-06T21:36:49.239Z,23.92
2023-03-06T21:39:17.815Z,25.55
2023-03-06T21:41:52.229Z,23.58
2023-03-06T21:44:20.044Z,26.38
2023-03-06T21:46:47.666Z,25.83
2023-03-06T21:49:15.038Z,25.17
2023-03-06T21:51:42.526Z,23.80
2023-03-06T21:54:16.186Z,22.92
2023-03-06T21:56:43.707Z,24.00
2023-03-06T21:59:11.113Z,26.02
2023-03-06T22:01:38.562Z,26.77
2023-03-06T22:04:05.829Z,26.65
2023-03-06T22:06:34.104Z,26.48
2023-03-06T22:09:01.951Z,25.63
2023-03-06T22:11:31.709Z,27.92
2023-03-06T22:13:59.478Z,23.85
2023-03-06T22:16:29.058Z,27.02
2023-03-06T22:18:56.458Z,22.02
2023-03-06T22:21:24.488Z,29.00
2023-03-06T22:23:57.782Z,25.13
2023-03-06T22:26:30.143Z,25.63
2023-03-06T22:28:58.633Z,26.45
2023-03-06T22:31:28.932Z,25.17
2023-03-06T22:34:00.592Z,26.05
2023-03-06T22:36:31.219Z,25.23
2023-03-06T22:39:00.708Z,27.42
2023-03-06T22:41:29.309Z,26.67
2023-03-06T22:44:00.986Z,31.00
2023-03-06T22:46:29.794Z,28.58
2023-03-06T22:49:01.501Z,26.45
2023-03-06T22:51:36.720Z,27.88
2023-03-06T22:54:07.741Z,28.17
2023-03-06T22:56:36.869Z,23.30
2023-03-06T22:59:04.737Z,26.42
2023-03-06T23:01:34.912Z,22.17
2023-03-06T23:04:04.701Z,23.92
2023-03-06T23:06:41.008Z,26.13
2023-03-06T23:09:22.846Z,22.20
2023-03-06T23:11:50.595Z,25.92
2023-03-06T23:14:19.814Z,24.65
2023-03-06T23:16:47.187Z,28.40
2023-03-06T23:19:15.744Z,34.83
2023-03-06T23:21:43.392Z,30.90
2023-03-06T23:24:10.671Z,27.95
2023-03-06T23:26:40.946Z,30.42
2023-03-06T23:29:08.575Z,27.98
2023-03-06T23:31:38.021Z,28.67
2023-03-06T23:34:06.384Z,31.20
2023-03-06T23:36:34.214Z,26.40
2023-03-06T23:39:01.471Z,25.10
2023-03-06T23:41:29.873Z,26.50
2023-03-06T23:43:58.702Z,27.27
2023-03-06T23:46:28.014Z,27.75
2023-03-06T23:48:55.418Z,26.90
2023-03-06T23:51:23.467Z,25.95
2023-03-06T23:53:58.588Z,25.48
2023-03-06T23:56:27.925Z,29.05
2023-03-06T23:58:56.591Z,40.83
